sensor_id;sensor_type;location;lat;lon;timestamp;pressure;altitude;pressure_sealevel;temperature;humidity
78144;BME280;67394;52.522;13.622;2023-06-04T00:02:13;101570.75;;;9.12;54.28
78144;BME280;67394;52.522;13.622;2023-06-04T00:04:40;101564.59;;;9.02;55.50
78144;BME280;67394;52.522;13.622;2023-06-04T00:07:06;101563.69;;;8.99;54.94
78144;BME280;67394;52.522;13.622;2023-06-04T00:09:33;101561.00;;;8.94;55.31
78144;BME280;67394;52.522;13.622;2023-06-04T00:11:59;101558.50;;;8.96;56.03
78144;BME280;67394;52.522;13.622;2023-06-04T00:14:26;101558.38;;;8.90;56.32
78144;BME280;67394;52.522;13.622;2023-06-04T00:16:52;101559.97;;;8.85;57.04
78144;BME280;67394;52.522;13.622;2023-06-04T00:19:19;101555.59;;;8.80;56.09
78144;BME280;67394;52.522;13.622;2023-06-04T00:21:45;101548.69;;;8.75;56.50
78144;BME280;67394;52.522;13.622;2023-06-04T00:24:12;101554.50;;;8.69;57.29
78144;BME280;67394;52.522;13.622;2023-06-04T00:26:39;101549.31;;;8.65;57.26
78144;BME280;67394;52.522;13.622;2023-06-04T00:29:06;101542.44;;;8.62;57.28
78144;BME280;67394;52.522;13.622;2023-06-04T00:31:32;101541.50;;;8.57;57.74
78144;BME280;67394;52.522;13.622;2023-06-04T00:33:59;101540.63;;;8.58;57.60
78144;BME280;67394;52.522;13.622;2023-06-04T00:36:25;101533.66;;;8.51;58.10
78144;BME280;67394;52.522;13.622;2023-06-04T00:38:52;101535.28;;;8.46;58.00
78144;BME280;67394;52.522;13.622;2023-06-04T00:41:18;101537.69;;;8.40;59.09
78144;BME280;67394;52.522;13.622;2023-06-04T00:43:45;101534.22;;;8.38;58.71
78144;BME280;67394;52.522;13.622;2023-06-04T00:46:12;101539.13;;;8.30;59.84
78144;BME280;67394;52.522;13.622;2023-06-04T00:48:38;101535.16;;;8.41;58.98
78144;BME280;67394;52.522;13.622;2023-06-04T00:51:05;101542.81;;;8.41;59.07
78144;BME280;67394;52.522;13.622;2023-06-04T00:53:32;101542.56;;;8.31;59.18
78144;BME280;67394;52.522;13.622;2023-06-04T00:55:58;101539.03;;;8.26;59.77
78144;BME280;67394;52.522;13.622;2023-06-04T00:58:25;101545.59;;;8.15;60.71
78144;BME280;67394;52.522;13.622;2023-06-04T01:00:54;101546.41;;;8.14;60.30
78144;BME280;67394;52.522;13.622;2023-06-04T01:03:25;101547.97;;;8.08;60.85
78144;BME280;67394;52.522;13.622;2023-06-04T01:06:00;101546.19;;;8.06;61.06
78144;BME280;67394;52.522;13.622;2023-06-04T01:08:28;101546.13;;;8.01;60.93
78144;BME280;67394;52.522;13.622;2023-06-04T01:10:56;101540.09;;;7.99;60.64
78144;BME280;67394;52.522;13.622;2023-06-04T01:13:24;101543.47;;;7.98;61.33
78144;BME280;67394;52.522;13.622;2023-06-04T01:15:51;101545.81;;;7.89;61.47
78144;BME280;67394;52.522;13.622;2023-06-04T01:18:27;101536.38;;;7.87;62.04
78144;BME280;67394;52.522;13.622;2023-06-04T01:21:00;101543.03;;;7.80;61.32
78144;BME280;67394;52.522;13.622;2023-06-04T01:23:47;101538.75;;;7.79;62.59
78144;BME280;67394;52.522;13.622;2023-06-04T01:26:15;101545.41;;;7.74;62.09
78144;BME280;67394;52.522;13.622;2023-06-04T01:28:43;101545.28;;;7.68;62.85
78144;BME280;67394;52.522;13.622;2023-06-04T01:31:11;101541.91;;;7.69;64.04
78144;BME280;67394;52.522;13.622;2023-06-04T01:33:37;101546.81;;;7.63;64.03
78144;BME280;67394;52.522;13.622;2023-06-04T01:36:04;101545.06;;;7.60;64.05
78144;BME280;67394;52.522;13.622;2023-06-04T01:38:30;101543.41;;;7.61;63.93
78144;BME280;67394;52.522;13.622;2023-06-04T01:40:57;101541.47;;;7.54;64.19
78144;BME280;67394;52.522;13.622;2023-06-04T01:43:23;101536.47;;;7.57;64.46
78144;BME280;67394;52.522;13.622;2023-06-04T01:45:50;101542.25;;;7.50;64.56
78144;BME280;67394;52.522;13.622;2023-06-04T01:48:16;101533.59;;;7.45;64.41
78144;BME280;67394;52.522;13.622;2023-06-04T01:50:42;101533.56;;;7.43;64.35
78144;BME280;67394;52.522;13.622;2023-06-04T01:53:09;101534.25;;;7.38;65.00
78144;BME280;67394;52.522;13.622;2023-06-04T01:55:35;101535.09;;;7.37;64.99
78144;BME280;67394;52.522;13.622;2023-06-04T01:58:02;101530.84;;;7.37;65.29
78144;BME280;67394;52.522;13.622;2023-06-04T02:00:28;101528.22;;;7.34;65.10
78144;BME280;67394;52.522;13.622;2023-06-04T02:02:55;101524.47;;;7.21;65.79
78144;BME280;67394;52.522;13.622;2023-06-04T02:05:22;101529.53;;;7.20;65.54
78144;BME280;67394;52.522;13.622;2023-06-04T02:07:48;101528.59;;;7.16;66.05
78144;BME280;67394;52.522;13.622;2023-06-04T02:10:17;101528.50;;;7.13;66.16
78144;BME280;67394;52.522;13.622;2023-06-04T02:12:57;101521.59;;;7.09;66.07
78144;BME280;67394;52.522;13.622;2023-06-04T02:15:26;101521.41;;;7.03;66.46
78144;BME280;67394;52.522;13.622;2023-06-04T02:17:56;101521.25;;;6.97;67.20
78144;BME280;67394;52.522;13.622;2023-06-04T02:20:23;101521.94;;;6.91;66.94
78144;BME280;67394;52.522;13.622;2023-06-04T02:22:49;101523.16;;;7.04;66.98
78144;BME280;67394;52.522;13.622;2023-06-04T02:25:15;101521.22;;;6.95;67.19
78144;BME280;67394;52.522;13.622;2023-06-04T02:27:42;101523.56;;;6.88;67.56
78144;BME280;67394;52.522;13.622;2023-06-04T02:30:09;101519.06;;;6.81;67.45
78144;BME280;67394;52.522;13.622;2023-06-04T02:32:35;101520.66;;;6.76;67.85
78144;BME280;67394;52.522;13.622;2023-06-04T02:35:03;101517.94;;;6.71;67.64
78144;BME280;67394;52.522;13.622;2023-06-04T02:37:29;101525.47;;;6.67;68.48
78144;BME280;67394;52.522;13.622;2023-06-04T02:39:56;101526.19;;;6.63;68.61
78144;BME280;67394;52.522;13.622;2023-06-04T02:42:22;101527.94;;;6.64;69.38
78144;BME280;67394;52.522;13.622;2023-06-04T02:44:48;101519.31;;;6.60;69.39
78144;BME280;67394;52.522;13.622;2023-06-04T02:47:15;101525.09;;;6.54;69.50
78144;BME280;67394;52.522;13.622;2023-06-04T02:49:42;101529.25;;;6.51;69.81
78144;BME280;67394;52.522;13.622;2023-06-04T02:52:08;101531.94;;;6.55;69.33
78144;BME280;67394;52.522;13.622;2023-06-04T02:54:35;101531.06;;;6.55;69.73
78144;BME280;67394;52.522;13.622;2023-06-04T02:57:01;101525.97;;;6.55;69.67
78144;BME280;67394;52.522;13.622;2023-06-04T02:59:27;101533.38;;;6.47;70.06
78144;BME280;67394;52.522;13.622;2023-06-04T03:01:54;101529.00;;;6.43;70.69
78144;BME280;67394;52.522;13.622;2023-06-04T03:04:21;101529.84;;;6.42;70.83
78144;BME280;67394;52.522;13.622;2023-06-04T03:06:47;101526.47;;;6.43;70.23
78144;BME280;67394;52.522;13.622;2023-06-04T03:09:13;101526.38;;;6.40;70.39
78144;BME280;67394;52.522;13.622;2023-06-04T03:11:40;101528.00;;;6.38;71.33
78144;BME280;67394;52.522;13.622;2023-06-04T03:14:06;101527.81;;;6.32;71.65
78144;BME280;67394;52.522;13.622;2023-06-04T03:16:33;101533.78;;;6.33;70.91
78144;BME280;67394;52.522;13.622;2023-06-04T03:18:59;101532.06;;;6.32;71.30
78144;BME280;67394;52.522;13.622;2023-06-04T03:21:27;101528.75;;;6.34;71.23
78144;BME280;67394;52.522;13.622;2023-06-04T03:23:53;101528.69;;;6.33;71.18
78144;BME280;67394;52.522;13.622;2023-06-04T03:26:20;101525.28;;;6.32;71.73
78144;BME280;67394;52.522;13.622;2023-06-04T03:28:46;101525.41;;;6.37;71.72
78144;BME280;67394;52.522;13.622;2023-06-04T03:31:13;101524.50;;;6.35;71.92
78144;BME280;67394;52.522;13.622;2023-06-04T03:33:39;101524.59;;;6.38;72.06
78144;BME280;67394;52.522;13.622;2023-06-04T03:36:06;101523.06;;;6.43;71.26
78144;BME280;67394;52.522;13.622;2023-06-04T03:38:32;101524.00;;;6.46;71.66
78144;BME280;67394;52.522;13.622;2023-06-04T03:40:58;101531.78;;;6.51;71.49
78144;BME280;67394;52.522;13.622;2023-06-04T03:43:25;101532.75;;;6.54;71.11
78144;BME280;67394;52.522;13.622;2023-06-04T03:45:51;101525.19;;;6.57;70.89
78144;BME280;67394;52.522;13.622;2023-06-04T03:48:18;101527.06;;;6.63;70.94
78144;BME280;67394;52.522;13.622;2023-06-04T03:50:44;101533.06;;;6.65;71.48
78144;BME280;67394;52.522;13.622;2023-06-04T03:53:11;101530.56;;;6.67;71.80
78144;BME280;67394;52.522;13.622;2023-06-04T03:55:37;101529.78;;;6.69;71.84
78144;BME280;67394;52.522;13.622;2023-06-04T03:58:04;101533.19;;;6.70;71.57
78144;BME280;67394;52.522;13.622;2023-06-04T04:00:30;101537.56;;;6.74;71.76
78144;BME280;67394;52.522;13.622;2023-06-04T04:02:57;101533.44;;;6.77;71.98
78144;BME280;67394;52.522;13.622;2023-06-04T04:05:23;101536.88;;;6.79;71.97
78144;BME280;67394;52.522;13.622;2023-06-04T04:07:50;101537.94;;;6.86;71.75
78144;BME280;67394;52.522;13.622;2023-06-04T04:10:16;101544.25;;;6.98;71.08
78144;BME280;67394;52.522;13.622;2023-06-04T04:12:43;101537.47;;;6.99;71.44
78144;BME280;67394;52.522;13.622;2023-06-04T04:15:09;101546.03;;;7.03;71.55
78144;BME280;67394;52.522;13.622;2023-06-04T04:17:36;101536.81;;;7.06;71.71
78144;BME280;67394;52.522;13.622;2023-06-04T04:20:02;101541.25;;;7.13;71.73
78144;BME280;67394;52.522;13.622;2023-06-04T04:22:28;101549.94;;;7.20;71.51
78144;BME280;67394;52.522;13.622;2023-06-04T04:24:55;101548.31;;;7.23;71.28
78144;BME280;67394;52.522;13.622;2023-06-04T04:27:21;101545.13;;;7.30;71.93
78144;BME280;67394;52.522;13.622;2023-06-04T04:29:48;101551.25;;;7.37;71.92
78144;BME280;67394;52.522;13.622;2023-06-04T04:32:14;101547.16;;;7.44;71.19
78144;BME280;67394;52.522;13.622;2023-06-04T04:34:51;101548.25;;;7.52;70.68
78144;BME280;67394;52.522;13.622;2023-06-04T04:37:17;101549.34;;;7.61;70.71
78144;BME280;67394;52.522;13.622;2023-06-04T04:39:43;101550.41;;;7.69;69.53
78144;BME280;67394;52.522;13.622;2023-06-04T04:42:10;101546.31;;;7.76;70.41
78144;BME280;67394;52.522;13.622;2023-06-04T04:44:36;101547.41;;;7.86;70.34
78144;BME280;67394;52.522;13.622;2023-06-04T04:47:03;101545.94;;;7.94;70.49
78144;BME280;67394;52.522;13.622;2023-06-04T04:49:29;101536.84;;;8.05;69.03
78144;BME280;67394;52.522;13.622;2023-06-04T04:51:56;101543.03;;;8.15;68.91
78144;BME280;67394;52.522;13.622;2023-06-04T04:54:22;101545.81;;;8.24;70.11
78144;BME280;67394;52.522;13.622;2023-06-04T04:56:49;101543.53;;;8.34;68.70
78144;BME280;67394;52.522;13.622;2023-06-04T04:59:30;101546.44;;;8.51;68.22
78144;BME280;67394;52.522;13.622;2023-06-04T05:01:56;101546.84;;;8.68;67.24
78144;BME280;67394;52.522;13.622;2023-06-04T05:04:23;101548.75;;;8.78;66.91
78144;BME280;67394;52.522;13.622;2023-06-04T05:06:49;101554.97;;;8.91;66.06
78144;BME280;67394;52.522;13.622;2023-06-04T05:09:16;101551.72;;;8.98;66.67
78144;BME280;67394;52.522;13.622;2023-06-04T05:11:42;101556.16;;;9.06;65.92
78144;BME280;67394;52.522;13.622;2023-06-04T05:14:09;101559.81;;;9.19;65.55
78144;BME280;67394;52.522;13.622;2023-06-04T05:16:35;101553.28;;;9.35;65.00
78144;BME280;67394;52.522;13.622;2023-06-04T05:19:01;101556.31;;;9.59;63.20
78144;BME280;67394;52.522;13.622;2023-06-04T05:21:28;101553.13;;;9.71;62.93
78144;BME280;67394;52.522;13.622;2023-06-04T05:23:55;101550.84;;;9.87;62.00
78144;BME280;67394;52.522;13.622;2023-06-04T05:26:21;101552.00;;;10.05;62.71
78144;BME280;67394;52.522;13.622;2023-06-04T05:28:48;101550.66;;;10.26;61.46
78144;BME280;67394;52.522;13.622;2023-06-04T05:31:14;101550.00;;;10.41;61.63
78144;BME280;67394;52.522;13.622;2023-06-04T05:33:41;101549.25;;;10.47;62.58
78144;BME280;67394;52.522;13.622;2023-06-04T05:36:07;101554.56;;;10.59;61.14
78144;BME280;67394;52.522;13.622;2023-06-04T05:38:34;101551.19;;;10.63;60.90
78144;BME280;67394;52.522;13.622;2023-06-04T05:41:01;101554.69;;;10.71;61.72
78144;BME280;67394;52.522;13.622;2023-06-04T05:43:28;101559.25;;;10.92;60.07
78144;BME280;67394;52.522;13.622;2023-06-04T05:45:54;101563.78;;;11.13;60.08
78144;BME280;67394;52.522;13.622;2023-06-04T05:48:21;101566.59;;;11.31;59.83
78144;BME280;67394;52.522;13.622;2023-06-04T05:50:47;101567.56;;;11.45;58.33
78144;BME280;67394;52.522;13.622;2023-06-04T05:53:13;101564.31;;;11.60;57.62
78144;BME280;67394;52.522;13.622;2023-06-04T05:55:40;101559.47;;;11.86;55.13
78144;BME280;67394;52.522;13.622;2023-06-04T05:58:06;101571.66;;;12.11;56.03
78144;BME280;67394;52.522;13.622;2023-06-04T06:00:33;101564.06;;;12.25;56.16
78144;BME280;67394;52.522;13.622;2023-06-04T06:03:00;101570.94;;;12.30;55.61
78144;BME280;67394;52.522;13.622;2023-06-04T06:05:27;101565.06;;;12.46;55.81
78144;BME280;67394;52.522;13.622;2023-06-04T06:07:53;101571.13;;;12.56;55.65
78144;BME280;67394;52.522;13.622;2023-06-04T06:10:20;101565.16;;;12.62;55.94
78144;BME280;67394;52.522;13.622;2023-06-04T06:12:46;101565.34;;;12.95;51.20
78144;BME280;67394;52.522;13.622;2023-06-04T06:15:12;101564.66;;;13.30;48.05
78144;BME280;67394;52.522;13.622;2023-06-04T06:17:39;101572.41;;;13.39;49.53
78144;BME280;67394;52.522;13.622;2023-06-04T06:20:06;101574.13;;;13.49;47.75
78144;BME280;67394;52.522;13.622;2023-06-04T06:22:32;101576.78;;;13.76;46.14
78144;BME280;67394;52.522;13.622;2023-06-04T06:24:59;101570.78;;;14.05;42.98
78144;BME280;67394;52.522;13.622;2023-06-04T06:27:25;101581.06;;;14.11;46.26
78144;BME280;67394;52.522;13.622;2023-06-04T06:29:52;101579.38;;;14.28;46.39
78144;BME280;67394;52.522;13.622;2023-06-04T06:32:18;101580.22;;;14.38;46.25
78144;BME280;67394;52.522;13.622;2023-06-04T06:34:44;101574.22;;;14.51;44.71
78144;BME280;67394;52.522;13.622;2023-06-04T06:37:11;101585.38;;;14.53;43.61
78144;BME280;67394;52.522;13.622;2023-06-04T06:39:37;101577.63;;;14.63;43.39
78144;BME280;67394;52.522;13.622;2023-06-04T06:42:04;101581.88;;;14.77;43.57
78144;BME280;67394;52.522;13.622;2023-06-04T06:44:30;101584.41;;;15.01;45.19
78144;BME280;67394;52.522;13.622;2023-06-04T06:46:57;101582.66;;;15.06;43.20
78144;BME280;67394;52.522;13.622;2023-06-04T06:49:23;101583.50;;;15.10;44.48
78144;BME280;67394;52.522;13.622;2023-06-04T06:51:50;101591.22;;;15.16;43.55
78144;BME280;67394;52.522;13.622;2023-06-04T06:54:16;101589.47;;;15.21;41.24
78144;BME280;67394;52.522;13.622;2023-06-04T06:56:43;101581.72;;;15.25;41.96
78144;BME280;67394;52.522;13.622;2023-06-04T06:59:09;101582.53;;;15.35;39.45
78144;BME280;67394;52.522;13.622;2023-06-04T07:01:35;101584.16;;;15.53;38.39
78144;BME280;67394;52.522;13.622;2023-06-04T07:04:02;101578.16;;;15.57;38.88
78144;BME280;67394;52.522;13.622;2023-06-04T07:06:29;101583.19;;;15.73;37.50
78144;BME280;67394;52.522;13.622;2023-06-04T07:08:55;101576.16;;;15.92;36.12
78144;BME280;67394;52.522;13.622;2023-06-04T07:11:21;101583.03;;;15.96;34.70
78144;BME280;67394;52.522;13.622;2023-06-04T07:13:48;101582.09;;;16.06;34.67
78144;BME280;67394;52.522;13.622;2023-06-04T07:16:14;101569.84;;;16.24;36.93
78144;BME280;67394;52.522;13.622;2023-06-04T07:18:41;101584.56;;;16.19;37.26
78144;BME280;67394;52.522;13.622;2023-06-04T07:21:07;101587.88;;;16.36;36.59
78144;BME280;67394;52.522;13.622;2023-06-04T07:23:34;101579.03;;;16.57;36.86
78144;BME280;67394;52.522;13.622;2023-06-04T07:26:01;101580.63;;;16.73;37.28
78144;BME280;67394;52.522;13.622;2023-06-04T07:28:27;101585.81;;;16.73;36.66
78144;BME280;67394;52.522;13.622;2023-06-04T07:30:54;101583.16;;;16.77;37.37
78144;BME280;67394;52.522;13.622;2023-06-04T07:33:20;101584.91;;;16.75;35.46
78144;BME280;67394;52.522;13.622;2023-06-04T07:35:46;101586.47;;;16.92;35.62
78144;BME280;67394;52.522;13.622;2023-06-04T07:38:13;101586.44;;;16.95;34.39
78144;BME280;67394;52.522;13.622;2023-06-04T07:40:39;101582.88;;;17.03;34.93
78144;BME280;67394;52.522;13.622;2023-06-04T07:43:06;101588.91;;;17.05;33.05
78144;BME280;67394;52.522;13.622;2023-06-04T07:45:32;101592.03;;;17.29;36.05
78144;BME280;67394;52.522;13.622;2023-06-04T07:48:01;101591.81;;;17.47;36.52
78144;BME280;67394;52.522;13.622;2023-06-04T07:50:28;101589.00;;;17.64;34.17
78144;BME280;67394;52.522;13.622;2023-06-04T07:52:54;101588.78;;;17.79;32.66
78144;BME280;67394;52.522;13.622;2023-06-04T07:55:21;101592.13;;;17.87;33.12
78144;BME280;67394;52.522;13.622;2023-06-04T07:57:48;101591.97;;;17.95;35.06
78144;BME280;67394;52.522;13.622;2023-06-04T08:00:15;101584.91;;;18.04;32.46
78144;BME280;67394;52.522;13.622;2023-06-04T08:02:41;101581.53;;;18.01;31.72
78144;BME280;67394;52.522;13.622;2023-06-04T08:05:08;101580.44;;;18.12;35.82
78144;BME280;67394;52.522;13.622;2023-06-04T08:07:35;101577.91;;;18.09;32.93
78144;BME280;67394;52.522;13.622;2023-06-04T08:10:01;101577.81;;;18.15;31.86
78144;BME280;67394;52.522;13.622;2023-06-04T08:12:27;101578.16;;;18.45;35.02
78144;BME280;67394;52.522;13.622;2023-06-04T08:14:54;101582.00;;;18.73;32.77
78144;BME280;67394;52.522;13.622;2023-06-04T08:17:20;101589.56;;;18.85;32.02
78144;BME280;67394;52.522;13.622;2023-06-04T08:19:47;101584.19;;;18.93;30.12
78144;BME280;67394;52.522;13.622;2023-06-04T08:22:13;101585.41;;;18.75;29.01
78144;BME280;67394;52.522;13.622;2023-06-04T08:24:40;101588.00;;;18.75;30.70
78144;BME280;67394;52.522;13.622;2023-06-04T08:27:06;101586.56;;;19.05;32.23
78144;BME280;67394;52.522;13.622;2023-06-04T08:29:33;101586.38;;;19.13;31.01
78144;BME280;67394;52.522;13.622;2023-06-04T08:31:59;101585.44;;;19.17;29.87
78144;BME280;67394;52.522;13.622;2023-06-04T08:34:26;101587.59;;;19.38;32.67
78144;BME280;67394;52.522;13.622;2023-06-04T08:36:52;101579.66;;;19.43;30.08
78144;BME280;67394;52.522;13.622;2023-06-04T08:39:19;101577.41;;;19.67;30.30
78144;BME280;67394;52.522;13.622;2023-06-04T08:41:54;101576.59;;;19.65;29.35
78144;BME280;67394;52.522;13.622;2023-06-04T08:44:22;101580.84;;;19.69;29.79
78144;BME280;67394;52.522;13.622;2023-06-04T08:46:51;101581.13;;;19.93;29.53
78144;BME280;67394;52.522;13.622;2023-06-04T08:49:18;101582.47;;;20.09;31.31
78144;BME280;67394;52.522;13.622;2023-06-04T08:51:45;101575.69;;;20.37;30.40
78144;BME280;67394;52.522;13.622;2023-06-04T08:54:11;101585.28;;;20.68;29.36
78144;BME280;67394;52.522;13.622;2023-06-04T08:56:37;101581.19;;;20.90;29.82
78144;BME280;67394;52.522;13.622;2023-06-04T08:59:05;101585.75;;;21.13;29.85
78144;BME280;67394;52.522;13.622;2023-06-04T09:01:33;101585.47;;;21.24;28.53
78144;BME280;67394;52.522;13.622;2023-06-04T09:04:03;101584.03;;;21.43;29.54
78144;BME280;67394;52.522;13.622;2023-06-04T09:06:34;101587.16;;;21.54;29.23
78144;BME280;67394;52.522;13.622;2023-06-04T09:09:03;101592.28;;;21.57;27.86
78144;BME280;67394;52.522;13.622;2023-06-04T09:11:38;101589.59;;;21.86;27.42
78144;BME280;67394;52.522;13.622;2023-06-04T09:14:07;101587.97;;;21.56;26.64
78144;BME280;67394;52.522;13.622;2023-06-04T09:16:48;101582.97;;;21.76;27.82
78144;BME280;67394;52.522;13.622;2023-06-04T09:19:16;101579.31;;;22.10;27.98
78144;BME280;67394;52.522;13.622;2023-06-04T09:21:54;101576.97;;;22.27;28.15
78144;BME280;67394;52.522;13.622;2023-06-04T09:24:23;101588.75;;;22.14;27.09
78144;BME280;67394;52.522;13.622;2023-06-04T09:26:50;101588.66;;;22.42;26.95
78144;BME280;67394;52.522;13.622;2023-06-04T09:29:17;101590.28;;;22.46;26.29
78144;BME280;67394;52.522;13.622;2023-06-04T09:31:45;101582.50;;;22.44;26.81
78144;BME280;67394;52.522;13.622;2023-06-04T09:34:12;101585.28;;;22.13;25.43
78144;BME280;67394;52.522;13.622;2023-06-04T09:36:38;101591.78;;;22.26;25.28
78144;BME280;67394;52.522;13.622;2023-06-04T09:39:17;101581.88;;;22.36;26.35
78144;BME280;67394;52.522;13.622;2023-06-04T09:41:44;101578.31;;;22.63;27.00
78144;BME280;67394;52.522;13.622;2023-06-04T09:44:10;101586.28;;;23.09;25.54
78144;BME280;67394;52.522;13.622;2023-06-04T09:46:37;101584.13;;;23.20;25.21
78144;BME280;67394;52.522;13.622;2023-06-04T09:49:05;101583.72;;;23.07;24.85
78144;BME280;67394;52.522;13.622;2023-06-04T09:51:32;101592.13;;;22.67;25.39
78144;BME280;67394;52.522;13.622;2023-06-04T09:54:01;101584.13;;;22.96;26.08
78144;BME280;67394;52.522;13.622;2023-06-04T09:56:29;101584.00;;;22.76;25.22
78144;BME280;67394;52.522;13.622;2023-06-04T09:58:59;101587.34;;;22.80;23.90
78144;BME280;67394;52.522;13.622;2023-06-04T10:01:27;101582.56;;;23.14;26.14
78144;BME280;67394;52.522;13.622;2023-06-04T10:03:55;101586.94;;;23.37;25.38
78144;BME280;67394;52.522;13.622;2023-06-04T10:06:25;101580.16;;;23.55;23.54
78144;BME280;67394;52.522;13.622;2023-06-04T10:08:54;101570.13;;;23.43;23.95
78144;BME280;67394;52.522;13.622;2023-06-04T10:11:31;101578.78;;;23.21;23.91
78144;BME280;67394;52.522;13.622;2023-06-04T10:14:03;101575.75;;;23.55;24.41
78144;BME280;67394;52.522;13.622;2023-06-04T10:16:31;101572.75;;;23.86;26.35
78144;BME280;67394;52.522;13.622;2023-06-04T10:19:00;101571.28;;;24.01;23.54
78144;BME280;67394;52.522;13.622;2023-06-04T10:21:27;101571.16;;;23.62;24.92
78144;BME280;67394;52.522;13.622;2023-06-04T10:23:54;101570.53;;;23.55;24.01
78144;BME280;67394;52.522;13.622;2023-06-04T10:26:21;101567.00;;;23.78;23.72
78144;BME280;67394;52.522;13.622;2023-06-04T10:28:47;101571.97;;;23.41;24.72
78144;BME280;67394;52.522;13.622;2023-06-04T10:31:15;101571.19;;;23.39;24.80
78144;BME280;67394;52.522;13.622;2023-06-04T10:33:42;101560.03;;;23.99;26.03
78144;BME280;67394;52.522;13.622;2023-06-04T10:36:19;101572.41;;;24.16;24.35
78144;BME280;67394;52.522;13.622;2023-06-04T10:38:47;101569.97;;;24.33;23.26
78144;BME280;67394;52.522;13.622;2023-06-04T10:41:15;101565.06;;;24.25;23.56
78144;BME280;67394;52.522;13.622;2023-06-04T10:43:45;101561.56;;;24.65;24.27
78144;BME280;67394;52.522;13.622;2023-06-04T10:46:13;101567.72;;;25.03;24.95
78144;BME280;67394;52.522;13.622;2023-06-04T10:48:50;101565.56;;;24.93;23.99
78144;BME280;67394;52.522;13.622;2023-06-04T10:51:33;101567.16;;;24.97;23.51
78144;BME280;67394;52.522;13.622;2023-06-04T10:54:01;101558.16;;;25.21;24.49
78144;BME280;67394;52.522;13.622;2023-06-04T10:56:32;101564.44;;;25.17;23.61
78144;BME280;67394;52.522;13.622;2023-06-04T10:58:59;101566.44;;;25.12;22.67
78144;BME280;67394;52.522;13.622;2023-06-04T11:01:27;101561.25;;;25.29;22.91
78144;BME280;67394;52.522;13.622;2023-06-04T11:03:57;101567.41;;;25.47;22.43
78144;BME280;67394;52.522;13.622;2023-06-04T11:06:23;101563.91;;;25.10;23.81
78144;BME280;67394;52.522;13.622;2023-06-04T11:08:50;101555.88;;;24.95;23.30
78144;BME280;67394;52.522;13.622;2023-06-04T11:11:27;101557.59;;;24.75;22.88
78144;BME280;67394;52.522;13.622;2023-06-04T11:13:53;101555.88;;;24.56;23.44
78144;BME280;67394;52.522;13.622;2023-06-04T11:16:20;101552.69;;;25.07;23.66
78144;BME280;67394;52.522;13.622;2023-06-04T11:18:57;101550.19;;;25.41;22.95
78144;BME280;67394;52.522;13.622;2023-06-04T11:21:24;101544.59;;;25.30;23.15
78144;BME280;67394;52.522;13.622;2023-06-04T11:23:59;101546.97;;;25.35;22.55
78144;BME280;67394;52.522;13.622;2023-06-04T11:26:31;101547.34;;;24.69;22.06
78144;BME280;67394;52.522;13.622;2023-06-04T11:28:58;101552.25;;;24.97;23.37
78144;BME280;67394;52.522;13.622;2023-06-04T11:31:24;101550.00;;;25.08;24.07
78144;BME280;67394;52.522;13.622;2023-06-04T11:33:51;101548.84;;;25.14;22.41
78144;BME280;67394;52.522;13.622;2023-06-04T11:36:24;101552.81;;;25.41;22.56
78144;BME280;67394;52.522;13.622;2023-06-04T11:39:00;101538.94;;;25.21;22.49
78144;BME280;67394;52.522;13.622;2023-06-04T11:41:31;101544.47;;;25.50;22.16
78144;BME280;67394;52.522;13.622;2023-06-04T11:44:02;101545.59;;;25.45;22.23
78144;BME280;67394;52.522;13.622;2023-06-04T11:46:31;101530.03;;;25.59;22.46
78144;BME280;67394;52.522;13.622;2023-06-04T11:48:59;101538.34;;;25.69;22.87
78144;BME280;67394;52.522;13.622;2023-06-04T11:51:27;101529.75;;;25.65;21.38
78144;BME280;67394;52.522;13.622;2023-06-04T11:53:54;101540.44;;;25.43;21.63
78144;BME280;67394;52.522;13.622;2023-06-04T11:56:23;101539.78;;;25.21;21.72
78144;BME280;67394;52.522;13.622;2023-06-04T11:58:51;101546.88;;;25.19;21.80
78144;BME280;67394;52.522;13.622;2023-06-04T12:01:19;101536.19;;;25.77;22.12
78144;BME280;67394;52.522;13.622;2023-06-04T12:03:45;101538.91;;;25.57;21.43
78144;BME280;67394;52.522;13.622;2023-06-04T12:06:17;101534.44;;;25.59;20.70
78144;BME280;67394;52.522;13.622;2023-06-04T12:08:52;101533.09;;;25.86;21.71
78144;BME280;67394;52.522;13.622;2023-06-04T12:13:51;101525.91;;;26.07;21.03
78144;BME280;67394;52.522;13.622;2023-06-04T12:16:18;101524.97;;;26.08;20.54
78144;BME280;67394;52.522;13.622;2023-06-04T12:18:44;101536.34;;;26.25;21.53
78144;BME280;67394;52.522;13.622;2023-06-04T12:21:21;101534.13;;;26.68;22.04
78144;BME280;67394;52.522;13.622;2023-06-04T12:23:48;101536.06;;;26.32;21.70
78144;BME280;67394;52.522;13.622;2023-06-04T12:26:21;101534.34;;;26.48;20.51
78144;BME280;67394;52.522;13.622;2023-06-04T12:29:01;101535.34;;;26.78;20.60
78144;BME280;67394;52.522;13.622;2023-06-04T12:31:28;101528.38;;;26.77;20.84
78144;BME280;67394;52.522;13.622;2023-06-04T12:33:54;101529.19;;;26.62;20.02
78144;BME280;67394;52.522;13.622;2023-06-04T12:36:21;101530.19;;;26.92;21.20
78144;BME280;67394;52.522;13.622;2023-06-04T12:38:48;101523.34;;;27.21;20.29
78144;BME280;67394;52.522;13.622;2023-06-04T12:41:15;101521.06;;;26.82;20.44
78144;BME280;67394;52.522;13.622;2023-06-04T12:43:42;101522.28;;;27.24;21.06
78144;BME280;67394;52.522;13.622;2023-06-04T12:46:09;101511.84;;;27.38;21.01
78144;BME280;67394;52.522;13.622;2023-06-04T12:48:36;101517.78;;;27.26;20.67
78144;BME280;67394;52.522;13.622;2023-06-04T12:51:03;101513.78;;;27.50;21.22